Pagrindinis puslapis
METAR-TAF:

METAR-TAF

Oro uostai :

Batam, Indonezija

platuma: 01-07-15N, ilguma: 104-07-07E, Aukštis: 38 m

Dabartinis oras

Ataskaita buvo paskelbta 40 minutes, ne 08:00 UTC
Vėjas 13 kt iš Šiaurės/Šiaurės Rytų
Temperatūra 31°C
Drėgmė 63%
Slėgis 1012 hPa
Matomumas 10 km arba daugiau
Mažai debesys ne aukštis 1400 ft

METAR: WIDD 230800Z 03013KT 9999 FEW014 31/23 Q1012 NOSIG

Laikas: 15:40 (08:40 UTC)

Prognozė

Ataskaita buvo paskelbta 3 valandos ir 40 minutes, ne 05:00 UTC
Prognozė galioja nuo 23 metu 06 UTC su 24 metu 06 UTC
Vėjas 9 kt iš Šiaurės/Šiaurės Rytų
Matomumas 10 km arba daugiau
Mažai debesys ne aukštis 1400 ft
Tikimybė 40% :
Laikinai
nuo 23 metu 07 UTC su 23 metu 09 UTC
Matomumas: 5000 m
Išsisklaidę debesys ne aukštis 1400 ft
lietus

TAF: WIDD 230500Z 2306/2406 03009KT 9999 FEW014 PROB40 TEMPO 2307/2309 5000 -RA SCT014

Orai ataskaitas ir orų prognozės (METAR, TAF).

turimą stotys yra geltonos ir raudonos taškus žemėlapyje.

Perkelti pele per norėdami pamatyti stoties vardą.

Tada spustelėkite, norėdami matyti oro stebėjimo ir prognozės.

Norėdami pakeisti žemėlapį: spustelėkite ant žalios mygtukų su juodo kryžiaus žemyn,; žalią mygtuką su brūkšneliu, jei norite nutolinti; arba žalių rodyklių gretimoms žemėlapius.


METAR-TAF: